Skip to main content

Cabril

ID 1210619 · 41.7167, -8.0167 map

Latest reading · 2026-05-09 19:00 (Europe/Lisbon)

Temperature
10.1 °C
Humidity
97 %
Pressure
Precipitation
1.8 mm
Radiation
Wind speed
1.8 km/h
Wind direction
NE · North-east

24-hour history

Time (Europe/Lisbon) Temp Humidity Pressure Rain Wind Dir
2026-05-09 19:00 10.1 °C 97 % 1.8 mm 1.8 km/h NE
2026-05-09 18:00 10.0 °C 97 % 1.4 mm 3.2 km/h S
2026-05-09 17:00 9.9 °C 90 % 3.5 mm 2.5 km/h N
2026-05-09 16:00 13.6 °C 80 % 0.0 mm 4.0 km/h E
2026-05-09 15:00 15.0 °C 71 % 0.0 mm 7.6 km/h SE
2026-05-09 14:00 14.5 °C 73 % 0.0 mm 13.7 km/h SE
2026-05-09 13:00 12.5 °C 83 % 0.0 mm 11.2 km/h E
2026-05-09 12:00 12.0 °C 82 % 0.5 mm 10.1 km/h E
2026-05-09 11:00 13.0 °C 75 % 0.2 mm 8.3 km/h E
2026-05-09 10:00 13.8 °C 71 % 0.0 mm 9.7 km/h SE
2026-05-09 09:00 13.1 °C 74 % 0.0 mm 9.4 km/h SE
2026-05-09 08:00 11.9 °C 79 % 0.1 mm 7.6 km/h E
2026-05-09 07:00 11.2 °C 81 % 0.0 mm 5.8 km/h SE
2026-05-09 06:00 11.5 °C 80 % 0.0 mm 7.9 km/h E
2026-05-09 05:00 11.3 °C 82 % 0.0 mm 3.2 km/h N
2026-05-09 04:00 11.5 °C 83 % 0.0 mm 9.0 km/h E
2026-05-09 03:00 11.5 °C 82 % 0.4 mm 4.0 km/h E
2026-05-09 02:00 12.7 °C 70 % 0.2 mm 6.1 km/h SE
2026-05-09 01:00 12.6 °C 70 % 0.0 mm 5.0 km/h E
2026-05-09 00:00 12.2 °C 73 % 0.0 mm 4.0 km/h NE
2026-05-08 23:00 11.9 °C 73 % 0.0 mm 5.0 km/h E
2026-05-08 22:00 11.9 °C 71 % 0.0 mm 3.2 km/h NE
2026-05-08 21:00 12.5 °C 70 % 0.0 mm 5.0 km/h E
2026-05-08 20:00 13.6 °C 70 % 0.0 mm 5.0 km/h NE